Time;durP1;ratioP1;P1;durP2;ratioP2;P2;SDS_P1;SDS_P2;PMS_P1;PMS_P2;Temp;Humidity;BMP_temperature;BMP_pressure;BME280_temperature;BME280_humidity;BME280_pressure;Samples;Min_cycle;Max_cycle;Signal;HPM_P1;HPM_P2
2024/02/14 00:03:27;;;;;;;16.83;7.83;;;5.40;99.90;;;;;;5666859;24;20208;-85
2024/02/14 00:28:43;;;;;;;13.20;8.07;;;5.20;99.90;;;;;;5749456;24;20186;-82
2024/02/14 00:59:29;;;;;;;9.67;7.23;;;4.90;99.90;;;;;;5897000;23;20211;-85
2024/02/14 01:03:50;;;;;;;13.50;8.07;;;5.00;99.90;;;;;;5733083;24;20591;-86
2024/02/14 01:29:40;;;;;;;13.60;8.70;;;4.50;99.90;;;;;;5725372;24;20216;-83
2024/02/14 02:25:30;;;;;;;19.70;11.07;;;3.40;99.90;;;;;;5615917;24;20724;-86
2024/02/14 02:51:01;;;;;;;15.83;11.43;;;3.20;99.90;;;;;;5621726;24;20544;-85
2024/02/14 03:31:35;;;;;;;29.57;17.83;;;2.50;99.90;;;;;;5709881;24;20205;-86
2024/02/14 03:51:22;;;;;;;27.37;16.03;;;2.00;99.90;;;;;;5703780;24;20715;-85
2024/02/14 04:27:23;;;;;;;32.03;17.90;;;2.20;99.90;;;;;;5959803;23;20489;-84
2024/02/14 05:37:56;;;;;;;27.27;17.03;;;2.00;99.90;;;;;;5495709;25;20598;-85
2024/02/14 06:08:23;;;;;;;31.70;17.37;;;1.80;99.90;;;;;;5900997;23;20954;-82
2024/02/14 06:29:08;;;;;;;31.30;18.10;;;2.20;99.90;;;;;;5533094;25;20194;-87
2024/02/14 07:09:25;;;;;;;28.73;16.63;;;3.00;99.90;;;;;;5653392;24;20227;-83
2024/02/14 09:21:16;;;;;;;8.50;5.70;;;6.40;99.90;;;;;;5681791;24;20627;-83
2024/02/14 09:51:49;;;;;;;11.33;6.43;;;6.90;95.90;;;;;;5726820;24;20369;-87
2024/02/14 10:17:28;;;;;;;5.63;3.50;;;7.30;89.40;;;;;;5571275;25;20184;-86
2024/02/14 10:42:37;;;;;;;5.70;3.73;;;7.90;84.80;;;;;;5684787;24;20174;-87
2024/02/14 11:07:30;;;;;;;6.20;3.60;;;8.70;81.30;;;;;;5948028;23;20619;-85
2024/02/14 11:22:59;;;;;;;5.60;2.80;;;9.00;78.70;;;;;;5687558;24;20616;-85
2024/02/14 11:48:16;;;;;;;3.80;2.80;;;8.80;76.70;;;;;;5454552;25;20444;-85
2024/02/14 12:03:53;;;;;;;3.77;2.50;;;8.60;76.60;;;;;;5580736;24;20581;-82
2024/02/14 12:24:13;;;;;;;5.37;2.97;;;8.40;73.90;;;;;;5565958;24;20977;-85
2024/02/14 12:54:42;;;;;;;4.60;2.90;;;8.60;74.60;;;;;;5833295;23;20197;-85
2024/02/14 13:15:07;;;;;;;4.50;2.57;;;8.50;74.20;;;;;;5816529;23;20182;-84
2024/02/14 13:40:17;;;;;;;4.00;2.50;;;8.60;68.80;;;;;;5580322;25;20286;-85
2024/02/14 14:30:44;;;;;;;8.67;3.70;;;8.50;71.40;;;;;;5533705;25;20411;-85
2024/02/14 14:56:27;;;;;;;5.30;3.50;;;7.70;76.20;;;;;;5745392;23;20353;-82
2024/02/14 15:16:46;;;;;;;8.50;4.13;;;7.70;78.30;;;;;;5717246;24;20166;-84
2024/02/14 15:42:12;;;;;;;9.43;4.10;;;6.90;83.20;;;;;;5894680;23;20179;-84
2024/02/14 16:48:16;;;;;;;7.13;4.43;;;6.80;85.10;;;;;;5669439;24;20245;-83
2024/02/14 17:33:22;;;;;;;11.17;6.17;;;5.30;95.20;;;;;;5709446;24;20539;-86
2024/02/14 19:51:08;;;;;;;14.90;9.00;;;6.30;87.10;;;;;;5705360;24;20166;-84
2024/02/14 20:16:30;;;;;;;15.83;9.00;;;6.20;88.30;;;;;;5594329;24;20236;-83
2024/02/14 20:41:42;;;;;;;14.87;8.00;;;6.00;89.60;;;;;;5614373;24;20190;-84
2024/02/14 20:57:09;;;;;;;14.13;8.67;;;6.00;90.10;;;;;;5760498;24;20595;-85
2024/02/14 21:22:12;;;;;;;14.27;7.83;;;5.90;90.70;;;;;;5691117;24;20237;-83
2024/02/14 22:17:47;;;;;;;13.00;8.60;;;5.50;95.00;;;;;;5631088;24;20550;-86
2024/02/14 22:38:16;;;;;;;12.13;8.07;;;5.40;95.50;;;;;;5640255;24;20198;-83
2024/02/14 23:03:57;;;;;;;12.93;8.13;;;5.30;96.70;;;;;;5597869;24;20600;-85
2024/02/14 23:34:11;;;;;;;11.10;7.30;;;5.40;96.00;;;;;;5620521;24;20193;-84
2024/02/14 23:59:56;;;;;;;11.53;7.83;;;5.40;95.80;;;;;;5650916;24;20399;-83
